sensor_id;sensor_type;location;lat;lon;timestamp;P1;durP1;ratioP1;P2;durP2;ratioP2
33505;SDS011;19843;51.040;13.782;2023-07-24T00:00:32;2.97;;;1.98;;
33505;SDS011;19843;51.040;13.782;2023-07-24T00:03:01;1.98;;;1.70;;
33505;SDS011;19843;51.040;13.782;2023-07-24T00:05:29;2.33;;;1.83;;
33505;SDS011;19843;51.040;13.782;2023-07-24T00:07:57;2.83;;;2.08;;
33505;SDS011;19843;51.040;13.782;2023-07-24T00:10:24;4.25;;;2.80;;
33505;SDS011;19843;51.040;13.782;2023-07-24T00:12:52;3.38;;;2.55;;
33505;SDS011;19843;51.040;13.782;2023-07-24T00:15:21;3.10;;;2.20;;
33505;SDS011;19843;51.040;13.782;2023-07-24T00:17:48;2.88;;;2.42;;
33505;SDS011;19843;51.040;13.782;2023-07-24T00:20:16;2.70;;;2.10;;
33505;SDS011;19843;51.040;13.782;2023-07-24T00:22:44;1.98;;;1.77;;
33505;SDS011;19843;51.040;13.782;2023-07-24T00:25:11;3.15;;;2.45;;
33505;SDS011;19843;51.040;13.782;2023-07-24T00:27:39;4.03;;;2.20;;
33505;SDS011;19843;51.040;13.782;2023-07-24T00:30:07;4.20;;;2.72;;
33505;SDS011;19843;51.040;13.782;2023-07-24T00:32:36;2.35;;;1.77;;
33505;SDS011;19843;51.040;13.782;2023-07-24T00:35:04;2.47;;;2.22;;
33505;SDS011;19843;51.040;13.782;2023-07-24T00:37:33;2.42;;;2.05;;
33505;SDS011;19843;51.040;13.782;2023-07-24T00:40:01;3.25;;;1.92;;
33505;SDS011;19843;51.040;13.782;2023-07-24T00:42:28;4.45;;;2.58;;
33505;SDS011;19843;51.040;13.782;2023-07-24T00:44:56;3.22;;;2.42;;
33505;SDS011;19843;51.040;13.782;2023-07-24T00:47:24;2.72;;;2.17;;
33505;SDS011;19843;51.040;13.782;2023-07-24T00:49:54;2.67;;;2.28;;
33505;SDS011;19843;51.040;13.782;2023-07-24T00:52:23;2.65;;;2.20;;
33505;SDS011;19843;51.040;13.782;2023-07-24T00:54:52;2.75;;;1.98;;
33505;SDS011;19843;51.040;13.782;2023-07-24T00:57:20;2.35;;;2.03;;
33505;SDS011;19843;51.040;13.782;2023-07-24T00:59:48;3.00;;;2.28;;
33505;SDS011;19843;51.040;13.782;2023-07-24T01:02:16;3.63;;;2.58;;
33505;SDS011;19843;51.040;13.782;2023-07-24T01:04:44;4.10;;;2.45;;
33505;SDS011;19843;51.040;13.782;2023-07-24T01:07:13;6.80;;;2.38;;
33505;SDS011;19843;51.040;13.782;2023-07-24T01:09:42;2.78;;;2.15;;
33505;SDS011;19843;51.040;13.782;2023-07-24T01:12:13;3.58;;;2.00;;
33505;SDS011;19843;51.040;13.782;2023-07-24T01:14:47;3.33;;;2.00;;
33505;SDS011;19843;51.040;13.782;2023-07-24T01:17:20;3.17;;;2.17;;
33505;SDS011;19843;51.040;13.782;2023-07-24T01:19:52;2.95;;;2.20;;
33505;SDS011;19843;51.040;13.782;2023-07-24T01:22:29;4.28;;;2.35;;
33505;SDS011;19843;51.040;13.782;2023-07-24T01:25:05;2.40;;;2.13;;
33505;SDS011;19843;51.040;13.782;2023-07-24T01:27:43;3.30;;;2.30;;
33505;SDS011;19843;51.040;13.782;2023-07-24T01:30:11;2.15;;;1.95;;
33505;SDS011;19843;51.040;13.782;2023-07-24T01:32:40;4.18;;;2.20;;
33505;SDS011;19843;51.040;13.782;2023-07-24T01:35:07;5.57;;;2.40;;
33505;SDS011;19843;51.040;13.782;2023-07-24T01:37:35;2.50;;;2.25;;
33505;SDS011;19843;51.040;13.782;2023-07-24T01:40:06;2.83;;;2.20;;
33505;SDS011;19843;51.040;13.782;2023-07-24T01:42:35;2.40;;;2.20;;
33505;SDS011;19843;51.040;13.782;2023-07-24T01:45:05;4.90;;;2.85;;
33505;SDS011;19843;51.040;13.782;2023-07-24T01:47:33;2.78;;;1.88;;
33505;SDS011;19843;51.040;13.782;2023-07-24T01:50:01;4.28;;;2.40;;
33505;SDS011;19843;51.040;13.782;2023-07-24T01:52:29;3.67;;;2.10;;
33505;SDS011;19843;51.040;13.782;2023-07-24T01:54:56;5.22;;;3.03;;
33505;SDS011;19843;51.040;13.782;2023-07-24T01:57:24;2.95;;;2.17;;
33505;SDS011;19843;51.040;13.782;2023-07-24T01:59:51;3.08;;;2.17;;
33505;SDS011;19843;51.040;13.782;2023-07-24T02:02:20;2.95;;;2.20;;
33505;SDS011;19843;51.040;13.782;2023-07-24T02:04:48;3.97;;;2.53;;
33505;SDS011;19843;51.040;13.782;2023-07-24T02:07:15;3.35;;;2.10;;
33505;SDS011;19843;51.040;13.782;2023-07-24T02:09:43;6.82;;;2.10;;
33505;SDS011;19843;51.040;13.782;2023-07-24T02:12:11;6.30;;;2.70;;
33505;SDS011;19843;51.040;13.782;2023-07-24T02:14:38;3.67;;;2.08;;
33505;SDS011;19843;51.040;13.782;2023-07-24T02:17:06;2.72;;;2.28;;
33505;SDS011;19843;51.040;13.782;2023-07-24T02:19:34;2.38;;;2.15;;
33505;SDS011;19843;51.040;13.782;2023-07-24T02:22:02;5.85;;;2.95;;
33505;SDS011;19843;51.040;13.782;2023-07-24T02:24:30;2.08;;;1.70;;
33505;SDS011;19843;51.040;13.782;2023-07-24T02:26:58;2.63;;;2.10;;
33505;SDS011;19843;51.040;13.782;2023-07-24T02:29:25;3.80;;;2.20;;
33505;SDS011;19843;51.040;13.782;2023-07-24T02:31:52;2.28;;;1.90;;
33505;SDS011;19843;51.040;13.782;2023-07-24T02:34:21;4.97;;;2.25;;
33505;SDS011;19843;51.040;13.782;2023-07-24T02:36:51;2.55;;;2.00;;
33505;SDS011;19843;51.040;13.782;2023-07-24T02:39:19;4.43;;;2.60;;
33505;SDS011;19843;51.040;13.782;2023-07-24T02:41:47;4.95;;;2.47;;
33505;SDS011;19843;51.040;13.782;2023-07-24T02:44:15;3.03;;;2.35;;
33505;SDS011;19843;51.040;13.782;2023-07-24T02:46:43;3.33;;;2.40;;
33505;SDS011;19843;51.040;13.782;2023-07-24T02:49:10;3.22;;;2.53;;
33505;SDS011;19843;51.040;13.782;2023-07-24T02:51:38;3.10;;;2.33;;
33505;SDS011;19843;51.040;13.782;2023-07-24T02:54:07;2.90;;;2.60;;
33505;SDS011;19843;51.040;13.782;2023-07-24T02:56:34;3.83;;;2.70;;
33505;SDS011;19843;51.040;13.782;2023-07-24T02:59:02;2.67;;;2.13;;
33505;SDS011;19843;51.040;13.782;2023-07-24T03:01:29;3.00;;;2.22;;
33505;SDS011;19843;51.040;13.782;2023-07-24T03:03:57;2.78;;;2.47;;
33505;SDS011;19843;51.040;13.782;2023-07-24T03:06:25;3.33;;;2.33;;
33505;SDS011;19843;51.040;13.782;2023-07-24T03:08:53;3.22;;;2.20;;
33505;SDS011;19843;51.040;13.782;2023-07-24T03:11:22;3.97;;;2.53;;
33505;SDS011;19843;51.040;13.782;2023-07-24T03:13:49;3.30;;;2.40;;
33505;SDS011;19843;51.040;13.782;2023-07-24T03:16:17;2.85;;;2.25;;
33505;SDS011;19843;51.040;13.782;2023-07-24T03:18:45;4.43;;;2.65;;
33505;SDS011;19843;51.040;13.782;2023-07-24T03:21:13;3.47;;;2.45;;
33505;SDS011;19843;51.040;13.782;2023-07-24T03:23:41;2.78;;;2.10;;
33505;SDS011;19843;51.040;13.782;2023-07-24T03:26:08;3.05;;;2.13;;
33505;SDS011;19843;51.040;13.782;2023-07-24T03:28:37;3.03;;;2.13;;
33505;SDS011;19843;51.040;13.782;2023-07-24T03:31:05;4.15;;;2.10;;
33505;SDS011;19843;51.040;13.782;2023-07-24T03:33:32;2.83;;;2.00;;
33505;SDS011;19843;51.040;13.782;2023-07-24T03:36:00;4.88;;;2.30;;
33505;SDS011;19843;51.040;13.782;2023-07-24T03:38:28;2.70;;;2.08;;
33505;SDS011;19843;51.040;13.782;2023-07-24T03:40:55;3.55;;;2.42;;
33505;SDS011;19843;51.040;13.782;2023-07-24T03:43:23;3.88;;;2.33;;
33505;SDS011;19843;51.040;13.782;2023-07-24T03:45:52;2.70;;;2.35;;
33505;SDS011;19843;51.040;13.782;2023-07-24T03:48:19;3.70;;;2.28;;
33505;SDS011;19843;51.040;13.782;2023-07-24T03:50:47;2.97;;;2.17;;
33505;SDS011;19843;51.040;13.782;2023-07-24T03:53:16;3.00;;;2.08;;
33505;SDS011;19843;51.040;13.782;2023-07-24T03:55:43;4.90;;;2.78;;
33505;SDS011;19843;51.040;13.782;2023-07-24T03:58:11;4.82;;;2.20;;
33505;SDS011;19843;51.040;13.782;2023-07-24T04:00:39;2.55;;;1.88;;
33505;SDS011;19843;51.040;13.782;2023-07-24T04:03:08;3.90;;;2.58;;
33505;SDS011;19843;51.040;13.782;2023-07-24T04:05:36;3.28;;;2.53;;
33505;SDS011;19843;51.040;13.782;2023-07-24T04:08:03;4.13;;;2.42;;
33505;SDS011;19843;51.040;13.782;2023-07-24T04:10:31;3.33;;;2.22;;
33505;SDS011;19843;51.040;13.782;2023-07-24T04:12:58;3.53;;;2.10;;
33505;SDS011;19843;51.040;13.782;2023-07-24T04:15:26;3.90;;;2.60;;
33505;SDS011;19843;51.040;13.782;2023-07-24T04:17:53;3.63;;;2.50;;
33505;SDS011;19843;51.040;13.782;2023-07-24T04:20:22;2.65;;;2.13;;
33505;SDS011;19843;51.040;13.782;2023-07-24T04:22:50;2.83;;;2.33;;
33505;SDS011;19843;51.040;13.782;2023-07-24T04:25:17;3.53;;;2.63;;
33505;SDS011;19843;51.040;13.782;2023-07-24T04:27:45;3.53;;;2.20;;
33505;SDS011;19843;51.040;13.782;2023-07-24T04:30:13;5.03;;;2.70;;
33505;SDS011;19843;51.040;13.782;2023-07-24T04:32:40;2.88;;;2.13;;
33505;SDS011;19843;51.040;13.782;2023-07-24T04:35:08;4.22;;;2.50;;
33505;SDS011;19843;51.040;13.782;2023-07-24T04:37:37;3.83;;;2.63;;
33505;SDS011;19843;51.040;13.782;2023-07-24T04:40:05;5.63;;;2.17;;
33505;SDS011;19843;51.040;13.782;2023-07-24T04:42:33;3.17;;;2.13;;
33505;SDS011;19843;51.040;13.782;2023-07-24T04:45:01;5.28;;;2.90;;
33505;SDS011;19843;51.040;13.782;2023-07-24T04:47:28;4.15;;;2.67;;
33505;SDS011;19843;51.040;13.782;2023-07-24T04:49:56;3.22;;;2.47;;
33505;SDS011;19843;51.040;13.782;2023-07-24T04:52:23;3.97;;;2.60;;
33505;SDS011;19843;51.040;13.782;2023-07-24T04:54:52;4.07;;;2.25;;
33505;SDS011;19843;51.040;13.782;2023-07-24T04:57:20;2.70;;;2.10;;
33505;SDS011;19843;51.040;13.782;2023-07-24T04:59:47;3.40;;;2.83;;
33505;SDS011;19843;51.040;13.782;2023-07-24T05:02:15;3.38;;;2.30;;
33505;SDS011;19843;51.040;13.782;2023-07-24T05:04:42;3.15;;;2.40;;
33505;SDS011;19843;51.040;13.782;2023-07-24T05:07:10;2.90;;;2.28;;
33505;SDS011;19843;51.040;13.782;2023-07-24T05:09:37;4.13;;;2.53;;
33505;SDS011;19843;51.040;13.782;2023-07-24T05:12:06;3.20;;;2.45;;
33505;SDS011;19843;51.040;13.782;2023-07-24T05:14:34;2.55;;;2.35;;
33505;SDS011;19843;51.040;13.782;2023-07-24T05:17:02;3.45;;;2.42;;
33505;SDS011;19843;51.040;13.782;2023-07-24T05:19:30;4.53;;;3.03;;
33505;SDS011;19843;51.040;13.782;2023-07-24T05:21:58;3.30;;;2.20;;
33505;SDS011;19843;51.040;13.782;2023-07-24T05:24:26;3.13;;;2.28;;
33505;SDS011;19843;51.040;13.782;2023-07-24T05:26:53;3.38;;;2.58;;
33505;SDS011;19843;51.040;13.782;2023-07-24T05:29:22;3.85;;;2.65;;
33505;SDS011;19843;51.040;13.782;2023-07-24T05:31:50;3.75;;;2.70;;
33505;SDS011;19843;51.040;13.782;2023-07-24T05:34:17;4.68;;;2.90;;
33505;SDS011;19843;51.040;13.782;2023-07-24T05:36:45;4.03;;;2.88;;
33505;SDS011;19843;51.040;13.782;2023-07-24T05:39:12;5.78;;;2.72;;
33505;SDS011;19843;51.040;13.782;2023-07-24T05:41:40;2.90;;;2.40;;
33505;SDS011;19843;51.040;13.782;2023-07-24T05:44:08;2.67;;;2.28;;
33505;SDS011;19843;51.040;13.782;2023-07-24T05:46:37;2.80;;;2.38;;
33505;SDS011;19843;51.040;13.782;2023-07-24T05:49:04;4.32;;;2.85;;
33505;SDS011;19843;51.040;13.782;2023-07-24T05:51:32;3.60;;;2.30;;
33505;SDS011;19843;51.040;13.782;2023-07-24T05:54:00;3.35;;;2.65;;
33505;SDS011;19843;51.040;13.782;2023-07-24T05:56:27;3.40;;;2.40;;
33505;SDS011;19843;51.040;13.782;2023-07-24T05:58:55;4.22;;;2.40;;
33505;SDS011;19843;51.040;13.782;2023-07-24T06:01:23;3.60;;;2.10;;
33505;SDS011;19843;51.040;13.782;2023-07-24T06:03:53;2.67;;;2.45;;
33505;SDS011;19843;51.040;13.782;2023-07-24T06:06:22;4.40;;;2.70;;
33505;SDS011;19843;51.040;13.782;2023-07-24T06:08:49;4.32;;;2.70;;
33505;SDS011;19843;51.040;13.782;2023-07-24T06:11:17;3.10;;;2.38;;
33505;SDS011;19843;51.040;13.782;2023-07-24T06:13:44;6.88;;;2.85;;
33505;SDS011;19843;51.040;13.782;2023-07-24T06:16:12;3.45;;;2.40;;
33505;SDS011;19843;51.040;13.782;2023-07-24T06:18:40;4.93;;;2.80;;
33505;SDS011;19843;51.040;13.782;2023-07-24T06:21:10;10.00;;;2.70;;
33505;SDS011;19843;51.040;13.782;2023-07-24T06:23:37;2.58;;;2.38;;
33505;SDS011;19843;51.040;13.782;2023-07-24T06:26:05;3.20;;;2.30;;
33505;SDS011;19843;51.040;13.782;2023-07-24T06:28:32;3.63;;;2.25;;
33505;SDS011;19843;51.040;13.782;2023-07-24T06:31:00;4.22;;;2.72;;
33505;SDS011;19843;51.040;13.782;2023-07-24T06:33:27;4.15;;;2.50;;
33505;SDS011;19843;51.040;13.782;2023-07-24T06:35:55;2.85;;;2.55;;
33505;SDS011;19843;51.040;13.782;2023-07-24T06:38:24;4.38;;;2.50;;
33505;SDS011;19843;51.040;13.782;2023-07-24T06:40:51;3.03;;;2.58;;
33505;SDS011;19843;51.040;13.782;2023-07-24T06:43:19;7.53;;;2.58;;
33505;SDS011;19843;51.040;13.782;2023-07-24T06:45:46;7.22;;;3.25;;
33505;SDS011;19843;51.040;13.782;2023-07-24T06:48:14;3.75;;;2.60;;
33505;SDS011;19843;51.040;13.782;2023-07-24T06:50:41;3.75;;;2.90;;
33505;SDS011;19843;51.040;13.782;2023-07-24T06:53:09;3.90;;;2.72;;
33505;SDS011;19843;51.040;13.782;2023-07-24T06:55:38;4.20;;;2.50;;
33505;SDS011;19843;51.040;13.782;2023-07-24T06:58:05;3.47;;;2.63;;
33505;SDS011;19843;51.040;13.782;2023-07-24T07:00:33;4.68;;;2.65;;
33505;SDS011;19843;51.040;13.782;2023-07-24T07:03:00;4.53;;;2.63;;
33505;SDS011;19843;51.040;13.782;2023-07-24T07:05:28;4.35;;;2.60;;
33505;SDS011;19843;51.040;13.782;2023-07-24T07:07:58;5.72;;;2.90;;
33505;SDS011;19843;51.040;13.782;2023-07-24T07:10:25;5.70;;;3.17;;
33505;SDS011;19843;51.040;13.782;2023-07-24T07:12:54;4.38;;;2.25;;
33505;SDS011;19843;51.040;13.782;2023-07-24T07:15:21;3.30;;;2.85;;
33505;SDS011;19843;51.040;13.782;2023-07-24T07:17:49;4.03;;;3.00;;
33505;SDS011;19843;51.040;13.782;2023-07-24T07:20:18;4.90;;;2.28;;
33505;SDS011;19843;51.040;13.782;2023-07-24T07:22:45;5.88;;;3.00;;
33505;SDS011;19843;51.040;13.782;2023-07-24T07:25:14;4.50;;;2.67;;
33505;SDS011;19843;51.040;13.782;2023-07-24T07:27:42;3.00;;;2.50;;
33505;SDS011;19843;51.040;13.782;2023-07-24T07:30:11;4.22;;;2.90;;
33505;SDS011;19843;51.040;13.782;2023-07-24T07:32:38;3.05;;;2.55;;
33505;SDS011;19843;51.040;13.782;2023-07-24T07:35:07;4.05;;;2.97;;
33505;SDS011;19843;51.040;13.782;2023-07-24T07:37:34;2.97;;;2.50;;
33505;SDS011;19843;51.040;13.782;2023-07-24T07:40:02;3.67;;;2.38;;
33505;SDS011;19843;51.040;13.782;2023-07-24T07:42:31;4.95;;;2.78;;
33505;SDS011;19843;51.040;13.782;2023-07-24T07:44:59;3.75;;;3.05;;
33505;SDS011;19843;51.040;13.782;2023-07-24T07:47:28;14.20;;;3.55;;
33505;SDS011;19843;51.040;13.782;2023-07-24T07:49:56;3.53;;;2.65;;
33505;SDS011;19843;51.040;13.782;2023-07-24T07:52:24;2.95;;;2.42;;
33505;SDS011;19843;51.040;13.782;2023-07-24T07:54:52;6.43;;;2.78;;
33505;SDS011;19843;51.040;13.782;2023-07-24T07:57:19;3.90;;;3.10;;
33505;SDS011;19843;51.040;13.782;2023-07-24T07:59:47;4.53;;;2.85;;
33505;SDS011;19843;51.040;13.782;2023-07-24T08:02:14;3.45;;;2.47;;
33505;SDS011;19843;51.040;13.782;2023-07-24T08:04:43;3.63;;;2.70;;
33505;SDS011;19843;51.040;13.782;2023-07-24T08:07:11;3.00;;;2.70;;
33505;SDS011;19843;51.040;13.782;2023-07-24T08:09:38;4.10;;;3.00;;
33505;SDS011;19843;51.040;13.782;2023-07-24T08:12:06;5.28;;;2.92;;
33505;SDS011;19843;51.040;13.782;2023-07-24T08:14:34;3.30;;;2.80;;
33505;SDS011;19843;51.040;13.782;2023-07-24T08:17:02;4.47;;;3.28;;
33505;SDS011;19843;51.040;13.782;2023-07-24T08:19:30;3.60;;;2.88;;
33505;SDS011;19843;51.040;13.782;2023-07-24T08:21:59;3.85;;;3.13;;
33505;SDS011;19843;51.040;13.782;2023-07-24T08:24:27;6.35;;;3.20;;
33505;SDS011;19843;51.040;13.782;2023-07-24T08:26:54;3.03;;;2.40;;
33505;SDS011;19843;51.040;13.782;2023-07-24T08:29:22;3.85;;;3.30;;
33505;SDS011;19843;51.040;13.782;2023-07-24T08:31:49;3.83;;;2.95;;
33505;SDS011;19843;51.040;13.782;2023-07-24T08:34:17;4.03;;;3.10;;
33505;SDS011;19843;51.040;13.782;2023-07-24T08:36:44;4.40;;;3.20;;
33505;SDS011;19843;51.040;13.782;2023-07-24T08:39:13;6.07;;;2.53;;
33505;SDS011;19843;51.040;13.782;2023-07-24T08:41:42;3.38;;;2.55;;
33505;SDS011;19843;51.040;13.782;2023-07-24T08:44:09;4.82;;;3.03;;
33505;SDS011;19843;51.040;13.782;2023-07-24T08:46:37;3.65;;;2.75;;
33505;SDS011;19843;51.040;13.782;2023-07-24T08:49:11;3.30;;;2.60;;
33505;SDS011;19843;51.040;13.782;2023-07-24T08:51:40;3.65;;;2.78;;
33505;SDS011;19843;51.040;13.782;2023-07-24T08:54:08;3.47;;;3.08;;
33505;SDS011;19843;51.040;13.782;2023-07-24T08:56:37;5.00;;;3.20;;
33505;SDS011;19843;51.040;13.782;2023-07-24T08:59:06;2.85;;;2.53;;
33505;SDS011;19843;51.040;13.782;2023-07-24T09:01:33;3.88;;;2.65;;
33505;SDS011;19843;51.040;13.782;2023-07-24T09:04:01;3.00;;;2.50;;
33505;SDS011;19843;51.040;13.782;2023-07-24T09:06:29;5.05;;;3.03;;
33505;SDS011;19843;51.040;13.782;2023-07-24T09:08:57;3.65;;;2.90;;
33505;SDS011;19843;51.040;13.782;2023-07-24T09:11:24;4.53;;;2.78;;
33505;SDS011;19843;51.040;13.782;2023-07-24T09:13:53;3.90;;;3.13;;
33505;SDS011;19843;51.040;13.782;2023-07-24T09:16:21;4.97;;;3.78;;
33505;SDS011;19843;51.040;13.782;2023-07-24T09:18:50;4.40;;;3.20;;
33505;SDS011;19843;51.040;13.782;2023-07-24T09:21:28;3.67;;;2.80;;
33505;SDS011;19843;51.040;13.782;2023-07-24T09:23:55;5.20;;;3.28;;
33505;SDS011;19843;51.040;13.782;2023-07-24T09:26:23;5.20;;;3.38;;
33505;SDS011;19843;51.040;13.782;2023-07-24T09:28:51;4.60;;;3.33;;
33505;SDS011;19843;51.040;13.782;2023-07-24T09:31:21;6.78;;;3.28;;
33505;SDS011;19843;51.040;13.782;2023-07-24T09:33:48;4.25;;;3.47;;
33505;SDS011;19843;51.040;13.782;2023-07-24T09:36:16;4.18;;;3.05;;
33505;SDS011;19843;51.040;13.782;2023-07-24T09:38:43;5.95;;;3.53;;
33505;SDS011;19843;51.040;13.782;2023-07-24T09:41:12;5.20;;;3.55;;
33505;SDS011;19843;51.040;13.782;2023-07-24T09:43:41;5.60;;;3.72;;
33505;SDS011;19843;51.040;13.782;2023-07-24T09:46:10;3.88;;;3.33;;
33505;SDS011;19843;51.040;13.782;2023-07-24T09:48:39;5.65;;;3.40;;
33505;SDS011;19843;51.040;13.782;2023-07-24T09:51:28;4.30;;;3.38;;
33505;SDS011;19843;51.040;13.782;2023-07-24T09:54:00;4.45;;;3.47;;
33505;SDS011;19843;51.040;13.782;2023-07-24T09:56:33;4.72;;;3.75;;
33505;SDS011;19843;51.040;13.782;2023-07-24T09:59:18;7.80;;;3.45;;
33505;SDS011;19843;51.040;13.782;2023-07-24T10:01:47;4.82;;;3.55;;
33505;SDS011;19843;51.040;13.782;2023-07-24T10:04:17;5.25;;;4.05;;
33505;SDS011;19843;51.040;13.782;2023-07-24T10:06:45;6.35;;;3.72;;
33505;SDS011;19843;51.040;13.782;2023-07-24T10:09:13;4.47;;;3.70;;
33505;SDS011;19843;51.040;13.782;2023-07-24T10:11:43;5.00;;;3.55;;
33505;SDS011;19843;51.040;13.782;2023-07-24T10:14:12;5.38;;;4.00;;
33505;SDS011;19843;51.040;13.782;2023-07-24T10:16:39;6.65;;;4.28;;
33505;SDS011;19843;51.040;13.782;2023-07-24T10:19:12;5.18;;;3.65;;
33505;SDS011;19843;51.040;13.782;2023-07-24T10:21:46;4.93;;;3.55;;
33505;SDS011;19843;51.040;13.782;2023-07-24T10:24:14;5.35;;;4.00;;
33505;SDS011;19843;51.040;13.782;2023-07-24T10:26:56;5.88;;;3.58;;
33505;SDS011;19843;51.040;13.782;2023-07-24T10:29:24;4.93;;;3.72;;
33505;SDS011;19843;51.040;13.782;2023-07-24T10:31:52;6.07;;;3.85;;
33505;SDS011;19843;51.040;13.782;2023-07-24T10:34:21;5.38;;;3.65;;
33505;SDS011;19843;51.040;13.782;2023-07-24T10:36:50;5.32;;;3.85;;
33505;SDS011;19843;51.040;13.782;2023-07-24T10:39:18;5.60;;;3.47;;
33505;SDS011;19843;51.040;13.782;2023-07-24T10:41:46;5.18;;;3.67;;
33505;SDS011;19843;51.040;13.782;2023-07-24T10:44:14;7.47;;;4.03;;
33505;SDS011;19843;51.040;13.782;2023-07-24T10:46:41;5.20;;;3.70;;
33505;SDS011;19843;51.040;13.782;2023-07-24T10:49:09;5.20;;;4.00;;
33505;SDS011;19843;51.040;13.782;2023-07-24T10:51:37;5.32;;;3.90;;
33505;SDS011;19843;51.040;13.782;2023-07-24T10:54:06;6.15;;;3.80;;
33505;SDS011;19843;51.040;13.782;2023-07-24T10:56:33;5.90;;;4.25;;
33505;SDS011;19843;51.040;13.782;2023-07-24T10:59:03;5.90;;;4.25;;
33505;SDS011;19843;51.040;13.782;2023-07-24T11:01:32;5.97;;;4.22;;
33505;SDS011;19843;51.040;13.782;2023-07-24T11:04:01;6.75;;;4.68;;
33505;SDS011;19843;51.040;13.782;2023-07-24T11:06:30;7.65;;;4.53;;
33505;SDS011;19843;51.040;13.782;2023-07-24T11:08:59;6.38;;;4.45;;
33505;SDS011;19843;51.040;13.782;2023-07-24T11:11:28;6.03;;;4.22;;
33505;SDS011;19843;51.040;13.782;2023-07-24T11:13:57;6.20;;;4.13;;
33505;SDS011;19843;51.040;13.782;2023-07-24T11:16:26;6.00;;;4.18;;
33505;SDS011;19843;51.040;13.782;2023-07-24T11:18:56;6.60;;;4.03;;
33505;SDS011;19843;51.040;13.782;2023-07-24T11:21:23;6.20;;;4.20;;
33505;SDS011;19843;51.040;13.782;2023-07-24T11:23:52;7.05;;;4.60;;
33505;SDS011;19843;51.040;13.782;2023-07-24T11:26:22;8.13;;;5.03;;
33505;SDS011;19843;51.040;13.782;2023-07-24T11:28:52;6.38;;;4.32;;
33505;SDS011;19843;51.040;13.782;2023-07-24T11:31:20;7.00;;;5.07;;
33505;SDS011;19843;51.040;13.782;2023-07-24T11:33:48;6.97;;;4.20;;
33505;SDS011;19843;51.040;13.782;2023-07-24T11:36:17;7.45;;;4.30;;
33505;SDS011;19843;51.040;13.782;2023-07-24T11:38:46;11.23;;;4.43;;
33505;SDS011;19843;51.040;13.782;2023-07-24T11:41:13;5.80;;;4.53;;
33505;SDS011;19843;51.040;13.782;2023-07-24T11:43:49;5.18;;;4.28;;
33505;SDS011;19843;51.040;13.782;2023-07-24T11:46:25;6.88;;;4.25;;
33505;SDS011;19843;51.040;13.782;2023-07-24T11:48:54;5.50;;;4.45;;
33505;SDS011;19843;51.040;13.782;2023-07-24T11:51:24;6.53;;;3.92;;
33505;SDS011;19843;51.040;13.782;2023-07-24T11:54:03;7.57;;;4.45;;
33505;SDS011;19843;51.040;13.782;2023-07-24T11:56:32;5.20;;;3.97;;
33505;SDS011;19843;51.040;13.782;2023-07-24T11:59:08;5.20;;;3.75;;
33505;SDS011;19843;51.040;13.782;2023-07-24T12:01:37;5.88;;;4.00;;
33505;SDS011;19843;51.040;13.782;2023-07-24T12:04:06;6.97;;;4.90;;
33505;SDS011;19843;51.040;13.782;2023-07-24T12:06:35;5.68;;;4.20;;
33505;SDS011;19843;51.040;13.782;2023-07-24T12:09:02;4.47;;;4.03;;
33505;SDS011;19843;51.040;13.782;2023-07-24T12:11:31;5.50;;;3.92;;
33505;SDS011;19843;51.040;13.782;2023-07-24T12:13:59;5.95;;;4.13;;
33505;SDS011;19843;51.040;13.782;2023-07-24T12:16:27;5.95;;;4.65;;
33505;SDS011;19843;51.040;13.782;2023-07-24T12:18:56;9.63;;;4.80;;
33505;SDS011;19843;51.040;13.782;2023-07-24T12:21:24;5.90;;;4.38;;
33505;SDS011;19843;51.040;13.782;2023-07-24T12:23:52;5.82;;;4.43;;
33505;SDS011;19843;51.040;13.782;2023-07-24T12:26:19;5.43;;;4.07;;
33505;SDS011;19843;51.040;13.782;2023-07-24T12:28:47;7.00;;;4.85;;
33505;SDS011;19843;51.040;13.782;2023-07-24T12:31:14;9.00;;;5.00;;
33505;SDS011;19843;51.040;13.782;2023-07-24T12:33:42;7.22;;;4.97;;
33505;SDS011;19843;51.040;13.782;2023-07-24T12:36:11;7.30;;;5.00;;
33505;SDS011;19843;51.040;13.782;2023-07-24T12:38:38;8.05;;;4.65;;
33505;SDS011;19843;51.040;13.782;2023-07-24T12:41:06;8.55;;;5.60;;
33505;SDS011;19843;51.040;13.782;2023-07-24T12:43:33;7.28;;;5.07;;
33505;SDS011;19843;51.040;13.782;2023-07-24T12:46:01;7.40;;;5.03;;
33505;SDS011;19843;51.040;13.782;2023-07-24T12:48:28;6.43;;;4.90;;
33505;SDS011;19843;51.040;13.782;2023-07-24T12:50:57;8.90;;;4.97;;
33505;SDS011;19843;51.040;13.782;2023-07-24T12:53:27;7.55;;;4.78;;
33505;SDS011;19843;51.040;13.782;2023-07-24T12:56:06;6.72;;;4.85;;
33505;SDS011;19843;51.040;13.782;2023-07-24T12:58:34;7.10;;;5.13;;
33505;SDS011;19843;51.040;13.782;2023-07-24T13:01:01;7.93;;;4.53;;
33505;SDS011;19843;51.040;13.782;2023-07-24T13:03:29;6.15;;;4.72;;
33505;SDS011;19843;51.040;13.782;2023-07-24T13:05:57;6.63;;;3.95;;
33505;SDS011;19843;51.040;13.782;2023-07-24T13:08:24;9.35;;;4.78;;
33505;SDS011;19843;51.040;13.782;2023-07-24T13:10:53;7.53;;;4.45;;
33505;SDS011;19843;51.040;13.782;2023-07-24T13:13:20;7.43;;;4.07;;
33505;SDS011;19843;51.040;13.782;2023-07-24T13:15:48;9.27;;;4.38;;
33505;SDS011;19843;51.040;13.782;2023-07-24T13:18:16;6.70;;;4.82;;
33505;SDS011;19843;51.040;13.782;2023-07-24T13:20:54;8.30;;;3.88;;
33505;SDS011;19843;51.040;13.782;2023-07-24T13:23:22;6.82;;;4.18;;
33505;SDS011;19843;51.040;13.782;2023-07-24T13:25:51;7.38;;;4.90;;
33505;SDS011;19843;51.040;13.782;2023-07-24T13:28:20;5.45;;;4.00;;
33505;SDS011;19843;51.040;13.782;2023-07-24T13:30:49;5.90;;;4.20;;
33505;SDS011;19843;51.040;13.782;2023-07-24T13:33:17;7.95;;;4.53;;
33505;SDS011;19843;51.040;13.782;2023-07-24T13:35:45;6.57;;;3.88;;
33505;SDS011;19843;51.040;13.782;2023-07-24T13:38:12;7.70;;;4.55;;
33505;SDS011;19843;51.040;13.782;2023-07-24T13:40:41;6.35;;;4.35;;
33505;SDS011;19843;51.040;13.782;2023-07-24T13:43:10;6.57;;;4.45;;
33505;SDS011;19843;51.040;13.782;2023-07-24T13:45:38;5.85;;;4.30;;
33505;SDS011;19843;51.040;13.782;2023-07-24T13:48:06;6.90;;;3.70;;
33505;SDS011;19843;51.040;13.782;2023-07-24T13:50:33;7.35;;;3.90;;
33505;SDS011;19843;51.040;13.782;2023-07-24T13:53:01;6.15;;;3.88;;
33505;SDS011;19843;51.040;13.782;2023-07-24T13:55:28;6.07;;;4.07;;
33505;SDS011;19843;51.040;13.782;2023-07-24T13:57:56;7.40;;;3.90;;
33505;SDS011;19843;51.040;13.782;2023-07-24T14:00:25;4.18;;;3.28;;
33505;SDS011;19843;51.040;13.782;2023-07-24T14:02:53;5.82;;;3.53;;
33505;SDS011;19843;51.040;13.782;2023-07-24T14:05:20;4.75;;;3.58;;
33505;SDS011;19843;51.040;13.782;2023-07-24T14:07:48;3.97;;;2.63;;
33505;SDS011;19843;51.040;13.782;2023-07-24T14:10:15;3.30;;;2.58;;
33505;SDS011;19843;51.040;13.782;2023-07-24T14:12:44;3.53;;;2.38;;
33505;SDS011;19843;51.040;13.782;2023-07-24T14:15:12;3.50;;;2.42;;
33505;SDS011;19843;51.040;13.782;2023-07-24T14:17:41;3.47;;;2.30;;
33505;SDS011;19843;51.040;13.782;2023-07-24T14:20:09;3.72;;;2.40;;
33505;SDS011;19843;51.040;13.782;2023-07-24T14:22:37;2.85;;;2.42;;
33505;SDS011;19843;51.040;13.782;2023-07-24T14:25:06;2.90;;;2.33;;
33505;SDS011;19843;51.040;13.782;2023-07-24T14:27:34;4.30;;;2.60;;
33505;SDS011;19843;51.040;13.782;2023-07-24T14:30:01;3.55;;;3.03;;
33505;SDS011;19843;51.040;13.782;2023-07-24T14:32:29;3.63;;;2.88;;
33505;SDS011;19843;51.040;13.782;2023-07-24T14:34:58;4.40;;;3.50;;
33505;SDS011;19843;51.040;13.782;2023-07-24T14:37:26;4.18;;;3.25;;
33505;SDS011;19843;51.040;13.782;2023-07-24T14:39:53;5.53;;;3.90;;